createdAt,value
2022-08-16T00:00:05.134Z,101041.77
2022-08-16T00:02:34.583Z,101039.70
2022-08-16T00:05:03.329Z,101047.66
2022-08-16T00:07:31.946Z,101053.18
2022-08-16T00:10:00.812Z,101054.78
2022-08-16T00:12:31.037Z,101060.60
2022-08-16T00:15:02.080Z,101066.16
2022-08-16T00:17:29.727Z,101060.63
2022-08-16T00:20:17.892Z,101050.92
2022-08-16T00:22:49.347Z,101055.66
2022-08-16T00:26:33.786Z,101051.77
2022-08-16T00:28:11.065Z,101066.23
2022-08-16T00:30:39.661Z,101069.92
2022-08-16T00:33:10.035Z,101074.40
2022-08-16T00:35:39.120Z,101075.74
2022-08-16T00:38:41.514Z,101072.60
2022-08-16T00:40:56.049Z,101065.77
2022-08-16T00:43:43.175Z,101070.51
2022-08-16T00:46:33.007Z,101079.47
2022-08-16T00:49:06.122Z,101067.37
2022-08-16T00:51:33.870Z,101066.36
2022-08-16T00:54:01.839Z,101066.36
2022-08-16T00:56:58.573Z,101065.80
2022-08-16T00:59:24.520Z,101073.68
2022-08-16T01:01:53.287Z,101073.09
2022-08-16T01:04:29.149Z,101082.31
2022-08-16T01:07:02.065Z,101074.66
2022-08-16T01:09:34.288Z,101069.46
2022-08-16T01:12:08.568Z,101066.03
2022-08-16T01:14:43.525Z,101069.98
2022-08-16T01:17:13.682Z,101066.62
2022-08-16T01:19:46.702Z,101067.41
2022-08-16T01:22:47.448Z,101063.22
2022-08-16T01:25:17.124Z,101055.86
2022-08-16T01:27:58.206Z,101069.27
2022-08-16T01:30:39.970Z,101073.23
2022-08-16T01:33:19.486Z,101067.73
2022-08-16T01:36:12.077Z,101070.12
2022-08-16T01:38:49.279Z,101081.43
2022-08-16T01:41:30.876Z,101084.57
2022-08-16T01:44:01.259Z,101076.43
2022-08-16T01:46:39.252Z,101076.69
2022-08-16T01:49:14.085Z,101081.98
2022-08-16T01:51:44.381Z,101087.25
2022-08-16T01:54:15.443Z,101083.33
2022-08-16T01:56:44.287Z,101079.11
2022-08-16T01:59:15.915Z,101073.62
2022-08-16T02:01:49.526Z,101075.97
2022-08-16T02:04:47.975Z,101079.63
2022-08-16T02:07:11.690Z,101069.13
2022-08-16T02:09:40.189Z,101065.44
2022-08-16T02:12:51.628Z,101069.66
2022-08-16T02:14:59.440Z,101066.52
2022-08-16T02:17:28.526Z,101069.40
2022-08-16T02:19:59.703Z,101064.69
2022-08-16T02:22:34.603Z,101064.95
2022-08-16T02:25:09.909Z,101057.85
2022-08-16T02:27:38.365Z,101057.59
2022-08-16T02:30:10.305Z,101057.59
2022-08-16T02:32:58.842Z,101064.13
2022-08-16T02:35:28.404Z,101054.95
2022-08-16T02:37:56.460Z,101049.98
2022-08-16T02:40:29.685Z,101052.07
2022-08-16T02:42:57.399Z,101047.62
2022-08-16T02:45:28.366Z,101052.59
2022-08-16T02:48:01.398Z,101038.95
2022-08-16T02:50:54.413Z,101037.38
2022-08-16T02:53:34.336Z,101029.24
2022-08-16T02:56:02.115Z,101024.27
2022-08-16T02:58:30.054Z,101030.32
2022-08-16T03:00:58.788Z,101021.88
2022-08-16T03:04:41.197Z,101030.81
2022-08-16T03:06:39.051Z,101016.62
2022-08-16T03:09:13.115Z,101015.31
2022-08-16T03:11:42.279Z,101015.87
2022-08-16T03:14:11.431Z,101015.09
2022-08-16T03:16:42.232Z,101006.41
2022-08-16T03:19:48.269Z,101014.82
2022-08-16T03:22:28.223Z,101016.39
2022-08-16T03:24:58.499Z,101006.41
2022-08-16T03:27:31.384Z,101005.63
2022-08-16T03:30:16.207Z,101010.60
2022-08-16T03:32:47.193Z,101004.59
2022-08-16T03:35:17.940Z,101009.55
2022-08-16T03:37:49.075Z,101010.11
2022-08-16T03:40:33.506Z,101006.94
2022-08-16T03:43:20.435Z,101011.39
2022-08-16T03:45:48.770Z,101014.82
2022-08-16T03:48:20.471Z,101009.03
2022-08-16T03:51:09.081Z,101010.87
2022-08-16T03:53:38.484Z,101013.74
2022-08-16T03:56:19.548Z,101012.17
2022-08-16T03:58:48.488Z,101005.11
2022-08-16T04:01:19.202Z,101010.60
2022-08-16T04:03:47.311Z,101000.89
2022-08-16T04:06:17.718Z,100999.59
2022-08-16T04:08:45.661Z,100999.06
2022-08-16T04:11:16.548Z,100997.20
2022-08-16T04:14:00.266Z,101002.20
2022-08-16T04:16:33.718Z,100998.02
2022-08-16T04:19:04.458Z,101001.12
2022-08-16T04:21:45.737Z,100997.49
2022-08-16T04:24:15.178Z,101001.94
2022-08-16T04:26:46.457Z,101006.91
2022-08-16T04:29:23.566Z,101013.48
2022-08-16T04:31:56.615Z,101016.88
2022-08-16T04:34:31.206Z,101025.77
2022-08-16T04:37:01.633Z,101028.91
2022-08-16T04:39:45.772Z,101028.16
2022-08-16T04:42:18.593Z,101025.02
2022-08-16T04:44:55.779Z,101024.47
2022-08-16T04:47:35.786Z,101021.88
2022-08-16T04:50:16.282Z,101037.88
2022-08-16T04:52:48.093Z,101031.34
2022-08-16T04:55:31.895Z,101024.53
2022-08-16T04:58:43.670Z,101023.72
2022-08-16T05:00:56.365Z,101027.67
2022-08-16T05:03:24.805Z,101028.46
2022-08-16T05:05:59.107Z,101027.67
2022-08-16T05:08:31.415Z,101034.51
2022-08-16T05:11:03.609Z,101035.52
2022-08-16T05:13:40.627Z,101037.38
2022-08-16T05:16:30.979Z,101043.70
2022-08-16T05:19:01.863Z,101047.62
2022-08-16T05:21:38.109Z,101039.74
2022-08-16T05:24:09.015Z,101038.17
2022-08-16T05:26:43.228Z,101045.49
2022-08-16T05:29:18.941Z,101052.33
2022-08-16T05:31:53.064Z,101048.93
2022-08-16T05:34:22.736Z,101049.98
2022-08-16T05:36:51.705Z,101046.31
2022-08-16T05:39:20.447Z,101040.30
2022-08-16T05:41:51.843Z,101039.74
2022-08-16T05:44:23.485Z,101038.46
2022-08-16T05:47:00.257Z,101036.30
2022-08-16T05:49:39.920Z,101034.48
2022-08-16T05:52:11.658Z,101031.83
2022-08-16T05:54:47.455Z,101036.01
2022-08-16T05:57:26.659Z,101036.24
2022-08-16T06:00:08.814Z,101036.73
2022-08-16T06:02:37.697Z,101043.53
2022-08-16T06:05:06.221Z,101040.85
2022-08-16T06:07:39.635Z,101035.78
2022-08-16T06:10:09.788Z,101039.45
2022-08-16T06:12:37.776Z,101038.37
2022-08-16T06:15:10.242Z,101039.41
2022-08-16T06:17:43.291Z,101038.62
2022-08-16T06:20:15.605Z,101036.47
2022-08-16T06:22:47.756Z,101037.71
2022-08-16T06:25:36.407Z,101044.74
2022-08-16T06:28:10.173Z,101046.21
2022-08-16T06:30:45.295Z,101042.39
2022-08-16T06:33:19.729Z,101041.47
2022-08-16T06:35:48.294Z,101039.87
2022-08-16T06:38:33.334Z,101042.71
2022-08-16T06:41:04.847Z,101044.32
2022-08-16T06:43:33.753Z,101040.55
2022-08-16T06:46:03.700Z,101044.74
2022-08-16T06:48:32.506Z,101038.73
2022-08-16T06:51:01.115Z,101041.34
2022-08-16T06:53:30.045Z,101043.89
2022-08-16T06:56:14.676Z,101045.49
2022-08-16T06:58:52.271Z,101036.01
2022-08-16T07:01:43.298Z,101039.70
2022-08-16T07:04:11.845Z,101044.94
2022-08-16T07:06:43.296Z,101043.01
2022-08-16T07:09:12.751Z,101049.06
2022-08-16T07:11:48.312Z,101048.21
2022-08-16T07:14:26.486Z,101049.48
2022-08-16T07:16:59.114Z,101052.79
2022-08-16T07:20:01.458Z,101046.15
2022-08-16T07:22:37.587Z,101048.66
2022-08-16T07:25:12.644Z,101053.87
2022-08-16T07:27:42.683Z,101046.97
2022-08-16T07:30:39.714Z,101051.94
2022-08-16T07:33:01.728Z,101043.70
2022-08-16T07:35:30.389Z,101043.60
2022-08-16T07:37:58.273Z,101044.58
2022-08-16T07:40:49.517Z,101042.88
2022-08-16T07:43:14.852Z,101050.07
2022-08-16T07:45:43.091Z,101050.14
2022-08-16T07:48:12.673Z,101053.67
2022-08-16T07:50:57.383Z,101055.37
2022-08-16T07:53:31.001Z,101046.05
2022-08-16T07:56:01.426Z,101058.80
2022-08-16T07:58:33.853Z,101055.60
2022-08-16T08:01:10.888Z,101052.91
2022-08-16T08:03:49.170Z,101057.59
2022-08-16T08:06:19.445Z,101064.66
2022-08-16T08:08:50.876Z,101069.70
2022-08-16T08:11:23.673Z,101073.84
2022-08-16T08:13:54.152Z,101072.90
2022-08-16T08:16:30.321Z,101074.59
2022-08-16T08:19:01.087Z,101067.80
2022-08-16T08:21:59.978Z,101068.94
2022-08-16T08:24:19.103Z,101072.54
2022-08-16T08:26:50.174Z,101069.73
2022-08-16T08:29:23.030Z,101071.39
2022-08-16T08:31:53.975Z,101083.95
2022-08-16T08:34:23.129Z,101077.12
2022-08-16T08:36:54.184Z,101078.00
2022-08-16T08:39:22.930Z,101073.91
2022-08-16T08:41:51.320Z,101075.12
2022-08-16T08:44:28.551Z,101074.44
2022-08-16T08:47:03.282Z,101088.85
2022-08-16T08:49:46.142Z,101072.05
2022-08-16T08:52:34.966Z,101072.15
2022-08-16T08:55:09.532Z,101082.12
2022-08-16T08:57:48.301Z,101075.61
2022-08-16T09:00:21.350Z,101073.78
2022-08-16T09:02:51.779Z,101072.30
2022-08-16T09:05:22.295Z,101081.10
2022-08-16T09:08:00.744Z,101076.49
2022-08-16T09:10:31.551Z,101079.96
2022-08-16T09:13:01.823Z,101078.26
2022-08-16T09:15:33.126Z,101069.13
2022-08-16T09:18:25.299Z,101079.90
2022-08-16T09:20:58.654Z,101077.37
2022-08-16T09:23:30.220Z,101072.57
2022-08-16T09:25:58.578Z,101078.81
2022-08-16T09:28:38.058Z,101078.69
2022-08-16T09:31:16.670Z,101075.64
2022-08-16T09:33:45.376Z,101071.00
2022-08-16T09:36:31.870Z,101064.04
2022-08-16T09:39:03.202Z,101067.99
2022-08-16T09:41:32.768Z,101060.08
2022-08-16T09:44:02.444Z,101065.18
2022-08-16T09:46:50.010Z,101066.39
2022-08-16T09:49:20.311Z,101059.85
2022-08-16T09:51:49.561Z,101060.44
2022-08-16T09:54:20.879Z,101066.91
2022-08-16T09:56:52.286Z,101061.13
2022-08-16T09:59:23.424Z,101055.11
2022-08-16T10:01:52.629Z,101051.48
2022-08-16T10:04:29.951Z,101059.49
2022-08-16T10:07:11.673Z,101054.45
2022-08-16T10:09:44.885Z,101051.34
2022-08-16T10:12:42.523Z,101041.08
2022-08-16T10:15:15.132Z,101048.30
2022-08-16T10:17:44.490Z,101052.79
2022-08-16T10:20:13.723Z,101050.30
2022-08-16T10:22:47.190Z,101046.25
2022-08-16T10:27:03.659Z,101055.01
2022-08-16T10:28:26.154Z,101055.83
2022-08-16T10:30:56.540Z,101057.37
2022-08-16T10:33:29.406Z,101046.87
2022-08-16T10:36:03.087Z,101047.06
2022-08-16T10:38:33.042Z,101055.63
2022-08-16T10:41:05.135Z,101052.33
2022-08-16T10:43:35.962Z,101058.38
2022-08-16T10:46:33.701Z,101051.94
2022-08-16T10:48:53.527Z,101050.40
2022-08-16T10:51:33.413Z,101048.08
2022-08-16T10:54:02.293Z,101052.75
2022-08-16T10:56:52.284Z,101053.12
2022-08-16T10:59:44.634Z,101045.52
2022-08-16T11:05:11.070Z,101046.70
2022-08-16T11:07:51.993Z,101048.50
2022-08-16T11:11:04.715Z,101045.76
2022-08-16T11:19:12.200Z,101045.73
2022-08-16T11:24:41.540Z,101042.78
2022-08-16T11:27:22.939Z,101040.39
2022-08-16T11:29:54.846Z,101039.45
2022-08-16T11:32:32.397Z,101040.20
2022-08-16T11:35:14.698Z,101048.77
2022-08-16T11:40:40.862Z,101035.29
2022-08-16T11:43:16.626Z,101039.54
2022-08-16T11:45:53.491Z,101044.38
2022-08-16T11:48:22.826Z,101044.77
2022-08-16T11:50:50.613Z,101043.76
2022-08-16T11:53:19.793Z,101035.00
2022-08-16T11:55:54.504Z,101039.67
2022-08-16T11:58:27.140Z,101034.18
2022-08-16T12:00:58.786Z,101025.58
2022-08-16T12:03:35.350Z,101030.23
2022-08-16T12:06:10.613Z,101032.97
2022-08-16T12:08:39.672Z,101034.34
2022-08-16T12:11:10.566Z,101027.90
2022-08-16T12:13:38.443Z,101019.30
2022-08-16T12:16:09.248Z,101023.20
2022-08-16T12:18:37.702Z,101024.93
2022-08-16T12:21:07.992Z,101014.95
2022-08-16T12:23:38.108Z,101018.45
2022-08-16T12:26:05.925Z,101016.81
2022-08-16T12:28:55.203Z,101009.98
2022-08-16T12:31:24.793Z,101010.54
2022-08-16T12:33:57.715Z,101008.91
2022-08-16T12:36:29.675Z,101013.16
2022-08-16T12:38:58.329Z,101011.55
2022-08-16T12:41:27.141Z,101010.70
2022-08-16T12:43:56.880Z,100999.71
2022-08-16T12:46:25.160Z,100995.30
2022-08-16T12:49:01.944Z,100991.54
2022-08-16T12:51:58.192Z,100979.70
2022-08-16T12:54:27.049Z,100983.73
2022-08-16T12:56:55.571Z,100984.25
2022-08-16T12:59:23.627Z,100974.24
2022-08-16T13:01:58.274Z,100978.55
2022-08-16T13:04:27.203Z,100975.29
2022-08-16T13:06:55.432Z,100980.20
2022-08-16T13:09:28.721Z,100975.55
2022-08-16T13:12:04.318Z,100966.55
2022-08-16T13:14:36.133Z,100967.15
2022-08-16T13:17:07.675Z,100971.98
2022-08-16T13:20:06.126Z,100958.87
2022-08-16T13:22:25.977Z,100963.98
2022-08-16T13:24:55.227Z,100959.88
2022-08-16T13:28:03.053Z,100956.42
2022-08-16T13:30:36.205Z,100957.63
2022-08-16T13:33:01.052Z,100960.84
2022-08-16T13:35:34.388Z,100955.37
2022-08-16T13:38:02.846Z,100954.42
2022-08-16T13:40:32.170Z,100949.00
2022-08-16T13:43:00.451Z,100947.27
2022-08-16T13:45:29.188Z,100945.70
2022-08-16T13:48:06.534Z,100952.37
2022-08-16T13:50:51.611Z,100946.31
2022-08-16T13:53:24.521Z,100936.73
2022-08-16T13:55:58.615Z,100943.02
2022-08-16T13:58:37.047Z,100950.11
2022-08-16T14:01:14.182Z,100936.18
2022-08-16T14:03:42.437Z,100945.79
2022-08-16T14:06:11.747Z,100940.73
2022-08-16T14:08:43.291Z,100939.48
2022-08-16T14:11:14.406Z,100933.79
2022-08-16T14:13:43.828Z,100932.58
2022-08-16T14:16:23.839Z,100940.79
2022-08-16T14:18:54.100Z,100934.51
2022-08-16T14:21:24.018Z,100918.62
2022-08-16T14:23:53.167Z,100920.19
2022-08-16T14:26:22.251Z,100920.19
2022-08-16T14:28:54.557Z,100910.80
2022-08-16T14:31:23.011Z,100912.34
2022-08-16T14:33:51.378Z,100910.97
2022-08-16T14:36:29.955Z,100914.66
2022-08-16T14:38:59.601Z,100923.49
2022-08-16T14:41:28.856Z,100922.25
2022-08-16T14:43:57.927Z,100926.14
2022-08-16T14:46:25.663Z,100918.75
2022-08-16T14:48:53.848Z,100923.23
2022-08-16T14:51:22.756Z,100921.20
2022-08-16T14:53:55.120Z,100926.50
2022-08-16T14:56:43.016Z,100912.77
2022-08-16T14:59:12.002Z,100925.48
2022-08-16T15:01:58.237Z,100910.57
2022-08-16T15:04:40.277Z,100916.75
2022-08-16T15:07:17.355Z,100915.48
2022-08-16T15:10:00.331Z,100905.54
2022-08-16T15:12:33.999Z,100904.33
2022-08-16T15:15:12.360Z,100912.86
2022-08-16T15:17:53.932Z,100905.99
2022-08-16T15:20:23.672Z,100908.02
2022-08-16T15:22:54.714Z,100909.13
2022-08-16T15:25:30.381Z,100905.77
2022-08-16T15:27:59.754Z,100895.95
2022-08-16T15:30:58.374Z,100904.66
2022-08-16T15:33:19.855Z,100902.98
2022-08-16T15:35:51.082Z,100899.33
2022-08-16T15:38:57.529Z,100894.75
2022-08-16T15:41:06.910Z,100899.23
2022-08-16T15:43:39.975Z,100895.95
2022-08-16T15:46:54.305Z,100900.73
2022-08-16T15:49:16.996Z,100910.28
2022-08-16T15:51:45.937Z,100908.74
2022-08-16T15:54:21.408Z,100907.20
2022-08-16T15:57:02.998Z,100901.32
2022-08-16T15:59:48.618Z,100903.02
2022-08-16T16:02:29.720Z,100898.90
2022-08-16T16:05:09.861Z,100899.75
2022-08-16T16:07:40.739Z,100898.24
2022-08-16T16:10:13.172Z,100896.91
2022-08-16T16:12:53.469Z,100899.59
2022-08-16T16:15:26.290Z,100904.36
2022-08-16T16:17:57.945Z,100889.84
2022-08-16T16:20:28.629Z,100896.97
2022-08-16T16:23:00.731Z,100893.73
2022-08-16T16:25:29.881Z,100896.41
2022-08-16T16:27:59.883Z,100897.49
2022-08-16T16:30:37.912Z,100900.77
2022-08-16T16:33:20.855Z,100897.56
2022-08-16T16:35:55.571Z,100896.48
2022-08-16T16:38:30.248Z,100896.97
2022-08-16T16:41:00.353Z,100892.49
2022-08-16T16:43:31.532Z,100889.71
2022-08-16T16:46:01.914Z,100888.77
2022-08-16T16:48:35.034Z,100881.47
2022-08-16T16:51:09.506Z,100893.24
2022-08-16T16:53:42.134Z,100889.71
2022-08-16T16:56:19.977Z,100888.30
2022-08-16T16:58:57.409Z,100882.88
2022-08-16T17:01:57.462Z,100883.95
2022-08-16T17:04:32.918Z,100877.74
2022-08-16T17:07:02.923Z,100878.79
2022-08-16T17:09:31.405Z,100881.44
2022-08-16T17:12:00.060Z,100881.24
2022-08-16T17:14:33.638Z,100882.32
2022-08-16T17:17:05.057Z,100882.45
2022-08-16T17:19:32.915Z,100887.52
2022-08-16T17:22:02.492Z,100875.72
2022-08-16T17:24:39.998Z,100887.75
2022-08-16T17:27:18.115Z,100873.79
2022-08-16T17:29:51.280Z,100870.38
2022-08-16T17:32:47.083Z,100878.07
2022-08-16T17:35:16.176Z,100879.90
2022-08-16T17:37:51.898Z,100876.60
2022-08-16T17:40:45.952Z,100864.70
2022-08-16T17:43:14.409Z,100874.15
2022-08-16T17:45:43.482Z,100881.83
2022-08-16T17:48:11.947Z,100875.62
2022-08-16T17:50:41.212Z,100873.30
2022-08-16T17:53:10.855Z,100878.07
2022-08-16T17:55:40.819Z,100883.56
2022-08-16T17:58:22.196Z,100874.27
2022-08-16T18:00:52.830Z,100882.13
2022-08-16T18:04:03.165Z,100891.22
2022-08-16T18:06:19.393Z,100885.76
2022-08-16T18:08:51.185Z,100890.37
2022-08-16T18:11:25.842Z,100898.05
2022-08-16T18:13:55.574Z,100888.27
2022-08-16T18:16:23.319Z,100893.63
2022-08-16T18:18:51.035Z,100887.23
2022-08-16T18:21:37.316Z,100886.90
2022-08-16T18:24:05.450Z,100881.47
2022-08-16T18:26:33.343Z,100883.70
2022-08-16T18:29:01.174Z,100882.74
2022-08-16T18:31:28.905Z,100891.77
2022-08-16T18:33:57.402Z,100887.55
2022-08-16T18:36:26.234Z,100887.98
2022-08-16T18:38:54.794Z,100888.24
2022-08-16T18:41:24.862Z,100892.03
2022-08-16T18:44:22.481Z,100891.48
2022-08-16T18:46:43.059Z,100879.18
2022-08-16T18:49:11.131Z,100894.87
2022-08-16T18:51:43.664Z,100901.58
2022-08-16T18:54:13.257Z,100889.35
2022-08-16T18:56:55.193Z,100896.02
2022-08-16T18:59:23.813Z,100902.73
2022-08-16T19:01:52.154Z,100903.58
2022-08-16T19:04:50.404Z,100906.72
2022-08-16T19:07:08.429Z,100909.69
2022-08-16T19:09:36.119Z,100912.08
2022-08-16T19:12:07.207Z,100915.05
2022-08-16T19:14:34.924Z,100925.38
2022-08-16T19:17:02.657Z,100919.17
2022-08-16T19:19:30.332Z,100934.02
2022-08-16T19:21:58.400Z,100923.91
2022-08-16T19:24:29.165Z,100927.84
2022-08-16T19:26:57.516Z,100933.89
2022-08-16T19:29:25.558Z,100936.87
2022-08-16T19:31:53.349Z,100931.24
2022-08-16T19:34:20.998Z,100930.65
2022-08-16T19:36:48.818Z,100931.66
2022-08-16T19:39:17.562Z,100932.62
2022-08-16T19:41:53.694Z,100926.99
2022-08-16T19:44:23.401Z,100936.54
2022-08-16T19:46:51.802Z,100942.62
2022-08-16T19:49:19.573Z,100941.25
2022-08-16T19:51:48.704Z,100933.46
2022-08-16T19:54:17.478Z,100928.40
2022-08-16T19:56:45.306Z,100932.88
2022-08-16T19:59:20.453Z,100929.96
2022-08-16T20:01:52.838Z,100923.52
2022-08-16T20:04:22.566Z,100927.45
2022-08-16T20:06:51.287Z,100927.64
2022-08-16T20:09:21.167Z,100932.32
2022-08-16T20:11:50.169Z,100924.54
2022-08-16T20:14:24.418Z,100915.94
2022-08-16T20:16:58.591Z,100922.94
2022-08-16T20:19:28.520Z,100928.36
2022-08-16T20:21:58.606Z,100924.47
2022-08-16T20:24:36.509Z,100930.69
2022-08-16T20:27:07.512Z,100923.69
2022-08-16T20:29:36.130Z,100934.18
2022-08-16T20:32:06.796Z,100926.20
2022-08-16T20:34:34.569Z,100931.05
2022-08-16T20:37:02.502Z,100945.27
2022-08-16T20:39:30.358Z,100930.26
2022-08-16T20:41:58.357Z,100941.34
2022-08-16T20:44:26.040Z,100939.55
2022-08-16T20:46:54.105Z,100942.09
2022-08-16T20:49:21.901Z,100944.38
2022-08-16T20:51:54.621Z,100947.69
2022-08-16T20:54:25.224Z,100944.16
2022-08-16T20:56:53.041Z,100949.59
2022-08-16T20:59:20.796Z,100951.32
2022-08-16T21:01:50.157Z,100949.32
2022-08-16T21:04:20.380Z,100942.85
2022-08-16T21:06:54.313Z,100938.56
2022-08-16T21:09:28.222Z,100945.92
2022-08-16T21:11:58.067Z,100937.12
2022-08-16T21:14:26.636Z,100940.00
2022-08-16T21:16:54.583Z,100945.01
2022-08-16T21:19:23.246Z,100948.08
2022-08-16T21:21:50.941Z,100947.23
2022-08-16T21:24:18.622Z,100953.77
2022-08-16T21:26:55.605Z,100957.43
2022-08-16T21:29:28.459Z,100961.26
2022-08-16T21:32:13.636Z,100964.10
2022-08-16T21:34:42.670Z,100964.79
2022-08-16T21:37:10.739Z,100971.56
2022-08-16T21:39:38.655Z,100974.41
2022-08-16T21:42:12.848Z,100974.30
2022-08-16T21:44:40.697Z,100973.23
2022-08-16T21:47:08.849Z,100973.36
2022-08-16T21:49:37.992Z,100976.43
2022-08-16T21:52:08.630Z,100981.83
2022-08-16T21:54:37.176Z,100984.09
2022-08-16T21:59:38.496Z,100984.34
2022-08-16T22:02:07.047Z,100990.49
2022-08-16T22:04:38.803Z,100987.26
2022-08-16T22:07:07.617Z,100992.20
2022-08-16T22:09:36.407Z,100993.20
2022-08-16T22:12:04.256Z,100998.02
2022-08-16T22:14:32.003Z,101002.82
2022-08-16T22:16:59.747Z,100995.23
2022-08-16T22:19:27.489Z,100998.14
2022-08-16T22:21:55.180Z,101004.52
2022-08-16T22:24:22.861Z,100999.48
2022-08-16T22:26:50.516Z,100995.79
2022-08-16T22:29:18.227Z,100980.26
2022-08-16T22:31:46.259Z,100983.73
2022-08-16T22:34:14.741Z,100990.43
2022-08-16T22:36:42.475Z,100984.18
2022-08-16T22:39:13.204Z,100985.52
2022-08-16T22:41:44.033Z,100980.81
2022-08-16T22:44:12.638Z,100981.17
2022-08-16T22:46:40.359Z,100980.95
2022-08-16T22:49:08.418Z,100983.95
2022-08-16T22:51:37.627Z,100978.16
2022-08-16T22:54:34.022Z,100977.34
2022-08-16T22:56:54.040Z,100979.84
2022-08-16T22:59:21.726Z,100980.16
2022-08-16T23:01:49.473Z,100976.23
2022-08-16T23:04:17.183Z,100983.92
2022-08-16T23:06:44.859Z,100980.26
2022-08-16T23:09:12.513Z,100978.23
2022-08-16T23:11:40.445Z,100976.98
2022-08-16T23:14:08.211Z,100978.10
2022-08-16T23:16:35.969Z,100972.84
2022-08-16T23:19:10.230Z,100978.98
2022-08-16T23:21:40.781Z,100975.62
2022-08-16T23:24:09.665Z,100976.50
2022-08-16T23:26:46.031Z,100979.73
2022-08-16T23:29:23.267Z,100977.94
2022-08-16T23:32:00.504Z,100975.58
2022-08-16T23:34:29.586Z,100973.55
2022-08-16T23:36:57.946Z,100970.74
2022-08-16T23:39:26.092Z,100961.81
2022-08-16T23:41:53.859Z,100962.14
2022-08-16T23:44:58.533Z,100961.91
2022-08-16T23:47:09.298Z,100947.39
2022-08-16T23:49:57.072Z,100944.48
2022-08-16T23:52:53.986Z,100939.80
2022-08-16T23:55:12.705Z,100933.30
2022-08-16T23:57:40.345Z,100946.80
